createdAt,value
2019-02-20T00:02:07.994Z,31.57
2019-02-20T00:04:37.308Z,25.23
2019-02-20T00:07:06.512Z,27.67
2019-02-20T00:09:35.752Z,23.97
2019-02-20T00:12:05.128Z,24.97
2019-02-20T00:14:34.289Z,25.60
2019-02-20T00:17:03.584Z,28.00
2019-02-20T00:19:32.800Z,25.90
2019-02-20T00:22:01.965Z,20.47
2019-02-20T00:24:31.155Z,24.67
2019-02-20T00:27:00.395Z,28.13
2019-02-20T00:29:29.696Z,30.63
2019-02-20T00:31:59.070Z,26.83
2019-02-20T00:34:28.248Z,25.50
2019-02-20T00:36:57.456Z,28.10
2019-02-20T00:39:26.659Z,24.07
2019-02-20T00:41:55.871Z,26.43
2019-02-20T00:44:33.955Z,21.73
2019-02-20T00:47:22.216Z,24.43
2019-02-20T00:49:52.044Z,22.63
2019-02-20T00:52:30.601Z,19.70
2019-02-20T00:54:59.934Z,22.80
2019-02-20T00:57:29.161Z,18.70
2019-02-20T00:59:58.340Z,18.37
2019-02-20T01:02:27.669Z,23.33
2019-02-20T01:04:56.899Z,22.53
2019-02-20T01:07:26.132Z,22.73
2019-02-20T01:09:55.361Z,27.13
2019-02-20T01:12:24.601Z,25.90
2019-02-20T01:14:53.797Z,20.37
2019-02-20T01:17:23.012Z,20.13
2019-02-20T01:19:52.288Z,20.63
2019-02-20T01:22:21.484Z,17.03
2019-02-20T01:24:50.719Z,24.80
2019-02-20T01:27:19.934Z,22.40
2019-02-20T01:29:49.151Z,25.10
2019-02-20T01:32:18.366Z,22.80
2019-02-20T01:34:47.585Z,27.80
2019-02-20T01:37:16.859Z,23.40
2019-02-20T01:39:46.156Z,16.67
2019-02-20T01:42:15.369Z,21.30
2019-02-20T01:44:44.557Z,18.70
2019-02-20T01:47:13.768Z,22.40
2019-02-20T01:49:42.973Z,18.63
2019-02-20T01:52:12.196Z,20.43
2019-02-20T01:54:41.400Z,23.57
2019-02-20T01:57:10.602Z,25.70
2019-02-20T01:59:39.833Z,20.47
2019-02-20T02:02:09.101Z,27.47
2019-02-20T02:04:38.340Z,22.57
2019-02-20T02:07:07.622Z,29.80
2019-02-20T02:09:36.808Z,24.83
2019-02-20T02:12:06.019Z,23.87
2019-02-20T02:14:35.246Z,32.43
2019-02-20T02:17:04.772Z,25.37
2019-02-20T02:19:33.968Z,23.60
2019-02-20T02:22:03.170Z,28.10
2019-02-20T02:24:32.496Z,26.13
2019-02-20T02:27:01.691Z,23.03
2019-02-20T02:29:30.897Z,23.70
2019-02-20T02:32:00.121Z,26.33
2019-02-20T02:34:29.335Z,24.43
2019-02-20T02:36:58.617Z,28.00
2019-02-20T02:39:27.759Z,28.80
2019-02-20T02:41:57.005Z,28.67
2019-02-20T02:44:26.226Z,22.10
2019-02-20T02:46:55.429Z,25.37
2019-02-20T02:49:24.668Z,28.13
2019-02-20T02:51:53.865Z,30.30
2019-02-20T02:54:23.120Z,32.63
2019-02-20T02:56:52.391Z,33.37
2019-02-20T02:59:21.637Z,32.57
2019-02-20T03:01:50.905Z,29.73
2019-02-20T03:04:20.136Z,38.30
2019-02-20T03:06:49.348Z,32.80
2019-02-20T03:09:18.546Z,36.10
2019-02-20T03:11:47.761Z,35.77
2019-02-20T03:14:16.959Z,36.40
2019-02-20T03:16:46.195Z,39.13
2019-02-20T03:19:15.509Z,34.90
2019-02-20T03:21:44.745Z,38.63
2019-02-20T03:24:14.037Z,37.53
2019-02-20T03:26:43.236Z,26.97
2019-02-20T03:29:12.444Z,39.20
2019-02-20T03:31:41.645Z,34.70
2019-02-20T03:34:11.087Z,33.47
2019-02-20T03:36:40.280Z,36.53
2019-02-20T03:39:09.512Z,35.87
2019-02-20T03:41:38.777Z,37.37
2019-02-20T03:44:07.985Z,38.53
2019-02-20T03:46:37.181Z,29.90
2019-02-20T03:49:06.479Z,35.83
2019-02-20T03:51:35.726Z,30.83
2019-02-20T03:54:05.010Z,35.40
2019-02-20T03:56:34.308Z,31.67
2019-02-20T03:59:03.521Z,34.93
2019-02-20T04:01:32.743Z,37.03
2019-02-20T04:04:02.041Z,29.33
2019-02-20T04:06:31.247Z,39.40
2019-02-20T04:09:00.445Z,35.13
2019-02-20T04:11:29.655Z,30.57
2019-02-20T04:13:58.903Z,27.67
2019-02-20T04:16:28.166Z,35.17
2019-02-20T04:18:57.402Z,28.50
2019-02-20T04:21:26.621Z,28.53
2019-02-20T04:24:02.590Z,31.83
2019-02-20T04:26:26.711Z,31.90
2019-02-20T04:28:55.927Z,34.53
2019-02-20T04:31:25.332Z,29.23
2019-02-20T04:33:54.525Z,33.27
2019-02-20T04:36:23.740Z,29.30
2019-02-20T04:38:53.099Z,32.17
2019-02-20T04:41:22.283Z,32.07
2019-02-20T04:43:51.615Z,32.60
2019-02-20T04:46:20.805Z,32.27
2019-02-20T04:48:50.020Z,31.47
2019-02-20T04:51:19.271Z,32.77
2019-02-20T04:53:48.515Z,31.40
2019-02-20T04:56:17.741Z,35.13
2019-02-20T04:58:48.925Z,35.17
2019-02-20T05:01:18.180Z,35.17
2019-02-20T05:03:47.374Z,35.53
2019-02-20T05:06:16.598Z,35.50
2019-02-20T05:08:45.824Z,33.43
2019-02-20T05:11:15.189Z,31.83
2019-02-20T05:13:44.510Z,38.27
2019-02-20T05:16:13.715Z,33.17
2019-02-20T05:18:43.044Z,38.23
2019-02-20T05:21:12.365Z,33.40
2019-02-20T05:23:42.852Z,33.10
2019-02-20T05:26:12.313Z,39.30
2019-02-20T05:28:41.531Z,30.67
2019-02-20T05:31:10.760Z,42.70
2019-02-20T05:33:39.959Z,37.10
2019-02-20T05:36:09.184Z,32.10
2019-02-20T05:38:38.380Z,34.47
2019-02-20T05:41:07.608Z,34.97
2019-02-20T05:43:36.817Z,35.97
2019-02-20T05:46:06.071Z,33.83
2019-02-20T05:48:35.262Z,38.43
2019-02-20T05:51:04.462Z,31.27
2019-02-20T05:53:33.716Z,36.73
2019-02-20T05:56:02.978Z,35.10
2019-02-20T05:58:32.464Z,39.23
2019-02-20T06:01:01.768Z,37.20
2019-02-20T06:03:30.980Z,31.77
2019-02-20T06:06:00.257Z,41.37
2019-02-20T06:08:29.452Z,36.13
2019-02-20T06:10:58.661Z,40.77
2019-02-20T06:13:27.944Z,40.43
2019-02-20T06:15:57.246Z,37.77
2019-02-20T06:18:26.585Z,44.23
2019-02-20T06:20:55.884Z,38.70
2019-02-20T06:23:26.125Z,44.07
2019-02-20T06:25:55.396Z,43.53
2019-02-20T06:28:24.805Z,39.67
2019-02-20T06:30:54.011Z,43.50
2019-02-20T06:33:24.685Z,44.20
2019-02-20T06:35:53.860Z,41.37
2019-02-20T06:38:23.136Z,38.70
2019-02-20T06:40:52.350Z,35.77
2019-02-20T06:43:21.574Z,44.23
2019-02-20T06:45:50.785Z,43.17
2019-02-20T06:48:20.009Z,38.63
2019-02-20T06:50:49.215Z,36.20
2019-02-20T06:53:18.445Z,38.37
2019-02-20T06:55:47.645Z,42.30
2019-02-20T06:58:16.960Z,41.00
2019-02-20T07:00:46.158Z,36.27
2019-02-20T07:03:15.628Z,40.13
2019-02-20T07:05:53.508Z,47.17
2019-02-20T07:09:15.225Z,39.90
2019-02-20T07:12:29.491Z,43.13
2019-02-20T07:15:49.064Z,40.40
2019-02-20T07:18:47.125Z,45.77
2019-02-20T07:21:58.411Z,40.27
2019-02-20T07:25:13.215Z,39.80
2019-02-20T07:28:21.715Z,34.90
2019-02-20T07:30:52.343Z,40.67
2019-02-20T07:33:21.512Z,46.90
2019-02-20T07:35:51.735Z,41.17
2019-02-20T07:38:20.994Z,31.10
2019-02-20T07:40:50.197Z,34.40
2019-02-20T07:43:19.462Z,41.63
2019-02-20T07:45:49.277Z,42.77
2019-02-20T07:48:18.756Z,35.90
2019-02-20T07:50:48.076Z,35.00
2019-02-20T07:53:17.300Z,38.57
2019-02-20T07:55:46.548Z,36.03
2019-02-20T07:58:15.737Z,35.97
2019-02-20T08:00:46.874Z,36.20
2019-02-20T08:03:16.221Z,34.10
2019-02-20T08:05:45.408Z,38.20
2019-02-20T08:08:14.753Z,40.47
2019-02-20T08:10:43.932Z,33.10
2019-02-20T08:13:13.162Z,33.50
2019-02-20T08:15:42.440Z,40.27
2019-02-20T08:18:11.680Z,35.57
2019-02-20T08:20:40.894Z,40.30
2019-02-20T08:23:10.161Z,46.97
2019-02-20T08:25:39.412Z,37.83
2019-02-20T08:28:08.721Z,44.70
2019-02-20T08:30:38.048Z,41.03
2019-02-20T08:33:07.241Z,41.83
2019-02-20T08:35:36.607Z,43.30
2019-02-20T08:38:05.857Z,35.10
2019-02-20T08:40:35.251Z,41.80
2019-02-20T08:43:04.492Z,41.67
2019-02-20T08:45:33.832Z,36.33
2019-02-20T08:48:03.027Z,43.83
2019-02-20T08:50:32.361Z,38.27
2019-02-20T08:53:01.537Z,35.67
2019-02-20T08:55:32.387Z,41.57
2019-02-20T08:58:02.009Z,43.63
2019-02-20T09:00:32.301Z,38.33
2019-02-20T09:03:01.679Z,42.20
2019-02-20T09:05:30.909Z,40.03
2019-02-20T09:08:00.235Z,38.47
2019-02-20T09:10:29.534Z,35.57
2019-02-20T09:12:58.848Z,41.37
2019-02-20T09:15:28.213Z,44.13
2019-02-20T09:17:57.532Z,45.00
2019-02-20T09:20:26.896Z,43.20
2019-02-20T09:22:56.127Z,47.23
2019-02-20T09:25:25.322Z,38.90
2019-02-20T09:27:54.525Z,45.03
2019-02-20T09:30:28.519Z,43.53
2019-02-20T09:32:54.580Z,41.10
2019-02-20T09:35:23.812Z,48.83
2019-02-20T09:37:53.025Z,41.77
2019-02-20T09:40:22.213Z,43.40
2019-02-20T09:42:51.467Z,40.73
2019-02-20T09:45:20.679Z,46.80
2019-02-20T09:47:49.976Z,51.10
2019-02-20T09:50:19.176Z,45.20
2019-02-20T09:52:52.288Z,48.87
2019-02-20T09:55:19.311Z,41.13
2019-02-20T09:57:48.495Z,52.43
2019-02-20T10:00:17.826Z,46.40
2019-02-20T10:02:47.457Z,38.83
2019-02-20T10:05:16.748Z,35.87
2019-02-20T10:07:45.948Z,39.97
2019-02-20T10:10:15.172Z,43.13
2019-02-20T10:12:44.393Z,41.53
2019-02-20T10:15:14.090Z,42.10
2019-02-20T10:17:43.302Z,38.43
2019-02-20T10:20:12.533Z,40.50
2019-02-20T10:22:41.750Z,42.50
2019-02-20T10:25:11.023Z,36.70
2019-02-20T10:27:40.226Z,42.57
2019-02-20T10:30:12.704Z,37.13
2019-02-20T10:32:41.932Z,40.87
2019-02-20T10:35:11.772Z,38.60
2019-02-20T10:37:40.980Z,44.80
2019-02-20T10:40:10.260Z,42.30
2019-02-20T10:42:39.636Z,44.17
2019-02-20T10:45:09.203Z,40.17
2019-02-20T10:47:38.523Z,44.10
2019-02-20T10:50:07.943Z,43.20
2019-02-20T10:52:37.273Z,40.50
2019-02-20T10:55:07.088Z,42.20
2019-02-20T10:57:36.433Z,45.27
2019-02-20T11:00:08.652Z,50.13
2019-02-20T11:02:37.856Z,52.70
2019-02-20T11:05:07.103Z,46.37
2019-02-20T11:07:36.320Z,48.90
2019-02-20T11:10:05.964Z,49.77
2019-02-20T11:12:35.382Z,49.17
2019-02-20T11:15:04.993Z,52.27
2019-02-20T11:17:34.317Z,50.63
2019-02-20T11:20:03.576Z,58.47
2019-02-20T11:22:32.816Z,55.37
2019-02-20T11:25:02.029Z,61.00
2019-02-20T11:27:31.313Z,53.23
2019-02-20T11:30:00.628Z,58.90
2019-02-20T11:32:29.864Z,53.97
2019-02-20T11:34:59.060Z,54.93
2019-02-20T11:37:28.383Z,58.17
2019-02-20T11:39:57.677Z,58.57
2019-02-20T11:42:26.904Z,60.00
2019-02-20T11:44:56.113Z,61.33
2019-02-20T11:47:25.428Z,57.03
2019-02-20T11:49:54.661Z,58.43
2019-02-20T11:52:23.992Z,59.17
2019-02-20T11:54:53.304Z,59.40
2019-02-20T11:57:22.586Z,58.03
2019-02-20T11:59:51.884Z,60.93
2019-02-20T12:02:21.106Z,66.47
2019-02-20T12:04:50.432Z,67.30
2019-02-20T12:07:19.715Z,70.60
2019-02-20T12:09:48.965Z,69.10
2019-02-20T12:12:18.158Z,70.43
2019-02-20T12:14:47.493Z,69.57
2019-02-20T12:17:16.780Z,66.33
2019-02-20T12:19:46.124Z,67.30
2019-02-20T12:22:15.345Z,59.10
2019-02-20T12:24:44.732Z,64.53
2019-02-20T12:27:14.077Z,64.80
2019-02-20T12:29:43.297Z,65.47
2019-02-20T12:32:12.599Z,65.63
2019-02-20T12:34:41.816Z,65.97
2019-02-20T12:37:11.101Z,63.00
2019-02-20T12:39:40.416Z,64.07
2019-02-20T12:42:09.680Z,54.00
2019-02-20T12:44:38.908Z,63.03
2019-02-20T12:47:08.167Z,57.63
2019-02-20T12:49:37.425Z,49.43
2019-02-20T12:52:06.659Z,57.40
2019-02-20T12:54:35.896Z,50.10
2019-02-20T12:57:05.140Z,48.63
2019-02-20T12:59:34.332Z,53.07
2019-02-20T13:02:03.653Z,55.77
2019-02-20T13:04:32.985Z,45.43
2019-02-20T13:07:02.301Z,50.00
2019-02-20T13:09:31.656Z,51.93
2019-02-20T13:12:00.913Z,53.03
2019-02-20T13:14:30.213Z,51.63
2019-02-20T13:16:59.786Z,60.40
2019-02-20T13:19:29.276Z,51.97
2019-02-20T13:21:58.864Z,51.93
2019-02-20T13:24:28.396Z,51.90
2019-02-20T13:26:57.920Z,48.67
2019-02-20T13:29:27.365Z,47.93
2019-02-20T13:31:56.889Z,48.97
2019-02-20T13:34:26.507Z,45.97
2019-02-20T13:36:56.062Z,42.33
2019-02-20T13:39:25.625Z,50.60
2019-02-20T13:41:55.568Z,51.23
2019-02-20T13:44:25.088Z,47.83
2019-02-20T13:46:55.325Z,47.77
2019-02-20T13:49:25.034Z,47.27
2019-02-20T13:51:54.775Z,48.90
2019-02-20T13:54:24.534Z,51.10
2019-02-20T13:57:01.644Z,54.80
2019-02-20T13:59:25.338Z,48.83
2019-02-20T14:01:54.949Z,55.13
2019-02-20T14:04:24.185Z,51.07
2019-02-20T14:06:53.386Z,45.47
2019-02-20T14:09:22.596Z,48.37
2019-02-20T14:11:51.837Z,48.90
2019-02-20T14:14:21.054Z,50.03
2019-02-20T14:16:50.281Z,44.47
2019-02-20T14:19:19.583Z,45.43
2019-02-20T14:21:51.649Z,42.57
2019-02-20T14:24:20.874Z,42.40
2019-02-20T14:26:50.103Z,46.23
2019-02-20T14:29:19.323Z,37.67
2019-02-20T14:31:49.629Z,41.03
2019-02-20T14:34:18.936Z,40.33
2019-02-20T14:36:48.188Z,36.10
2019-02-20T14:39:17.401Z,34.87
2019-02-20T14:41:46.632Z,32.50
2019-02-20T14:44:15.858Z,39.47
2019-02-20T14:46:45.084Z,34.77
2019-02-20T14:49:14.615Z,33.57
2019-02-20T14:51:43.832Z,33.07
2019-02-20T14:54:13.070Z,27.97
2019-02-20T14:56:42.460Z,30.43
2019-02-20T14:59:11.677Z,29.30
2019-02-20T15:01:40.980Z,26.23
2019-02-20T15:04:10.499Z,27.83
2019-02-20T15:06:39.788Z,30.27
2019-02-20T15:09:09.029Z,33.20
2019-02-20T15:11:38.219Z,29.83
2019-02-20T15:14:07.560Z,35.27
2019-02-20T15:16:36.767Z,28.27
2019-02-20T15:19:06.388Z,32.13
2019-02-20T15:21:35.624Z,28.70
2019-02-20T15:24:04.845Z,28.60
2019-02-20T15:26:34.073Z,30.37
2019-02-20T15:29:03.285Z,32.53
2019-02-20T15:31:33.941Z,28.90
2019-02-20T15:34:04.903Z,29.57
2019-02-20T15:36:34.284Z,27.47
2019-02-20T15:39:04.672Z,26.17
2019-02-20T15:41:33.906Z,24.40
2019-02-20T15:44:03.120Z,26.33
2019-02-20T15:46:32.364Z,26.93
2019-02-20T15:49:01.570Z,25.70
2019-02-20T15:51:30.783Z,23.50
2019-02-20T15:53:59.989Z,20.33
2019-02-20T15:56:29.236Z,21.37
2019-02-20T15:58:58.505Z,17.50
2019-02-20T16:01:27.704Z,15.97
2019-02-20T16:03:56.919Z,16.90
2019-02-20T16:06:27.028Z,19.30
2019-02-20T16:08:56.967Z,18.87
2019-02-20T16:11:26.233Z,25.20
2019-02-20T16:13:55.677Z,18.13
2019-02-20T16:16:25.186Z,13.63
2019-02-20T16:18:55.640Z,17.60
2019-02-20T16:21:25.549Z,13.27
2019-02-20T16:23:55.117Z,15.97
2019-02-20T16:26:25.040Z,16.43
2019-02-20T16:28:55.002Z,12.93
2019-02-20T16:31:24.761Z,20.13
2019-02-20T16:33:54.744Z,19.77
2019-02-20T16:36:24.780Z,16.07
2019-02-20T16:38:54.762Z,16.80
2019-02-20T16:41:24.466Z,14.57
2019-02-20T16:43:54.444Z,13.00
2019-02-20T16:46:24.849Z,11.00
2019-02-20T16:48:54.694Z,16.37
2019-02-20T16:51:24.284Z,14.03
2019-02-20T16:53:54.213Z,13.03
2019-02-20T16:56:24.212Z,17.90
2019-02-20T16:58:53.664Z,12.07
2019-02-20T17:01:23.486Z,15.63
2019-02-20T17:03:53.154Z,16.07
2019-02-20T17:06:22.660Z,13.53
2019-02-20T17:08:52.368Z,13.37
2019-02-20T17:11:23.886Z,13.27
2019-02-20T17:13:53.820Z,15.93
2019-02-20T17:16:23.609Z,12.77
2019-02-20T17:18:53.619Z,15.97
2019-02-20T17:21:23.416Z,15.83
2019-02-20T17:23:53.507Z,16.23
2019-02-20T17:26:23.061Z,17.10
2019-02-20T17:28:52.852Z,16.47
2019-02-20T17:31:22.606Z,16.43
2019-02-20T17:33:52.443Z,14.07
2019-02-20T17:36:23.028Z,17.27
2019-02-20T17:38:53.039Z,16.80
2019-02-20T17:41:23.404Z,14.47
2019-02-20T17:43:52.990Z,15.67
2019-02-20T17:46:22.707Z,15.50
2019-02-20T17:48:52.492Z,16.50
2019-02-20T17:51:21.966Z,17.80
2019-02-20T17:53:51.542Z,17.03
2019-02-20T17:56:21.224Z,12.50
2019-02-20T17:58:50.872Z,13.30
2019-02-20T18:01:20.682Z,14.80
2019-02-20T18:03:49.997Z,11.90
2019-02-20T18:06:19.602Z,17.50
2019-02-20T18:08:49.457Z,16.07
2019-02-20T18:11:19.810Z,14.83
2019-02-20T18:13:49.574Z,15.23
2019-02-20T18:16:18.944Z,12.93
2019-02-20T18:18:48.129Z,13.17
2019-02-20T18:21:17.433Z,11.97
2019-02-20T18:23:46.633Z,15.67
2019-02-20T18:26:15.968Z,14.60
2019-02-20T18:28:45.259Z,10.90
2019-02-20T18:31:14.557Z,15.50
2019-02-20T18:33:45.030Z,11.07
2019-02-20T18:36:14.930Z,13.23
2019-02-20T18:38:45.142Z,11.07
2019-02-20T18:41:14.817Z,14.57
2019-02-20T18:43:44.402Z,16.43
2019-02-20T18:46:14.795Z,12.13
2019-02-20T18:48:44.086Z,11.20
2019-02-20T18:51:14.108Z,16.37
2019-02-20T18:53:45.026Z,12.33
2019-02-20T18:56:14.734Z,15.33
2019-02-20T18:58:43.907Z,14.80
2019-02-20T19:01:13.216Z,16.07
2019-02-20T19:03:42.392Z,13.40
2019-02-20T19:06:11.631Z,15.07
2019-02-20T19:08:56.984Z,13.63
2019-02-20T19:12:13.755Z,17.30
2019-02-20T19:15:30.059Z,15.97
2019-02-20T19:18:25.700Z,12.50
2019-02-20T19:21:00.299Z,14.70
2019-02-20T19:24:16.700Z,12.50
2019-02-20T19:27:13.733Z,13.10
2019-02-20T19:30:18.337Z,19.10
2019-02-20T19:33:12.558Z,17.20
2019-02-20T19:36:26.062Z,11.13
2019-02-20T19:39:38.413Z,13.80
2019-02-20T19:42:57.696Z,11.50
2019-02-20T19:46:01.157Z,15.00
2019-02-20T19:48:59.782Z,21.37
2019-02-20T19:52:21.208Z,18.80
2019-02-20T19:55:30.951Z,18.60
2019-02-20T19:58:40.018Z,21.20
2019-02-20T20:01:23.983Z,16.87
2019-02-20T20:04:04.872Z,19.20
2019-02-20T20:06:58.385Z,16.67
2019-02-20T20:10:26.860Z,16.50
2019-02-20T20:13:48.509Z,18.63
2019-02-20T20:17:00.594Z,13.60
2019-02-20T20:19:56.584Z,16.43
2019-02-20T20:23:01.800Z,23.30
2019-02-20T20:25:56.492Z,18.70
2019-02-20T20:28:49.461Z,19.80
2019-02-20T20:31:50.648Z,18.63
2019-02-20T20:34:44.692Z,18.10
2019-02-20T20:37:42.051Z,18.00
2019-02-20T20:40:40.512Z,13.90
2019-02-20T20:43:36.261Z,15.33
2019-02-20T20:46:40.349Z,19.17
2019-02-20T20:49:23.689Z,14.00
2019-02-20T20:52:39.924Z,17.70
2019-02-20T20:55:45.001Z,17.40
2019-02-20T20:58:34.950Z,17.23
2019-02-20T21:01:36.573Z,17.30
2019-02-20T21:04:45.675Z,20.30
2019-02-20T21:07:44.812Z,14.90
2019-02-20T21:11:03.875Z,19.40
2019-02-20T21:13:55.534Z,18.67
2019-02-20T21:16:59.875Z,17.93
2019-02-20T21:20:01.423Z,15.97
2019-02-20T21:23:07.621Z,25.23
2019-02-20T21:26:13.435Z,17.67
2019-02-20T21:29:10.184Z,19.67
2019-02-20T21:32:01.173Z,22.43
2019-02-20T21:35:00.586Z,17.97
2019-02-20T21:38:02.791Z,16.53
2019-02-20T21:40:56.680Z,19.10
2019-02-20T21:43:59.323Z,19.93
2019-02-20T21:47:21.269Z,19.10
2019-02-20T21:50:09.420Z,18.60
2019-02-20T21:53:25.951Z,20.07
2019-02-20T21:56:18.992Z,22.20
2019-02-20T21:59:39.797Z,26.20
2019-02-20T22:02:46.067Z,22.93
2019-02-20T22:05:43.480Z,20.97
2019-02-20T22:08:56.454Z,24.40
2019-02-20T22:12:02.627Z,26.13
2019-02-20T22:15:24.684Z,22.20
2019-02-20T22:18:37.475Z,21.10
2019-02-20T22:21:38.534Z,22.07
2019-02-20T22:24:39.759Z,29.97
2019-02-20T22:27:27.370Z,23.60
2019-02-20T22:30:27.176Z,24.23
2019-02-20T22:33:17.508Z,21.87
2019-02-20T22:35:59.188Z,24.10
2019-02-20T22:39:05.203Z,24.03
2019-02-20T22:42:13.906Z,20.87
2019-02-20T22:45:33.493Z,21.00
2019-02-20T22:48:17.557Z,27.43
2019-02-20T22:51:28.433Z,19.13
2019-02-20T22:54:48.388Z,25.40
2019-02-20T22:57:54.784Z,23.13
2019-02-20T23:00:59.844Z,27.90
2019-02-20T23:03:48.307Z,25.10
2019-02-20T23:06:42.694Z,27.57
2019-02-20T23:09:39.769Z,22.40
2019-02-20T23:12:51.757Z,27.23
2019-02-20T23:15:20.968Z,26.97
2019-02-20T23:17:50.189Z,28.37
2019-02-20T23:20:19.428Z,26.80
2019-02-20T23:22:48.635Z,24.83
2019-02-20T23:25:17.859Z,27.27
2019-02-20T23:27:47.101Z,27.43
2019-02-20T23:30:16.300Z,30.10
2019-02-20T23:32:45.496Z,25.80
2019-02-20T23:35:14.712Z,29.50
2019-02-20T23:37:43.920Z,28.37
2019-02-20T23:40:13.217Z,22.43
2019-02-20T23:42:42.431Z,24.87
2019-02-20T23:45:11.621Z,23.83
2019-02-20T23:47:40.835Z,23.07
2019-02-20T23:50:10.066Z,23.90
2019-02-20T23:52:39.272Z,23.30
2019-02-20T23:55:08.501Z,28.33
2019-02-20T23:57:37.735Z,28.47
